sensor_id;sensor_type;location;lat;lon;timestamp;temperature;humidity
21035;DHT22;10676;50.848;3.272;2023-02-05T00:00:16;9.60;99.90
21035;DHT22;10676;50.848;3.272;2023-02-05T00:02:42;9.60;99.90
21035;DHT22;10676;50.848;3.272;2023-02-05T00:05:08;9.60;99.90
21035;DHT22;10676;50.848;3.272;2023-02-05T00:07:34;9.50;99.90
21035;DHT22;10676;50.848;3.272;2023-02-05T00:10:00;9.60;99.90
21035;DHT22;10676;50.848;3.272;2023-02-05T00:12:25;9.50;99.90
21035;DHT22;10676;50.848;3.272;2023-02-05T00:14:51;9.50;99.90
21035;DHT22;10676;50.848;3.272;2023-02-05T00:17:17;9.50;99.90
21035;DHT22;10676;50.848;3.272;2023-02-05T00:19:43;9.40;99.90
21035;DHT22;10676;50.848;3.272;2023-02-05T00:22:08;9.40;99.90
21035;DHT22;10676;50.848;3.272;2023-02-05T00:24:34;9.50;99.90
21035;DHT22;10676;50.848;3.272;2023-02-05T00:27:00;9.40;99.90
21035;DHT22;10676;50.848;3.272;2023-02-05T00:29:25;9.40;99.90
21035;DHT22;10676;50.848;3.272;2023-02-05T00:31:51;9.30;99.90
21035;DHT22;10676;50.848;3.272;2023-02-05T00:34:17;9.30;99.90
21035;DHT22;10676;50.848;3.272;2023-02-05T00:36:43;9.20;99.90
21035;DHT22;10676;50.848;3.272;2023-02-05T00:39:09;9.10;99.90
21035;DHT22;10676;50.848;3.272;2023-02-05T00:41:36;9.00;99.90
21035;DHT22;10676;50.848;3.272;2023-02-05T00:44:03;8.90;99.90
21035;DHT22;10676;50.848;3.272;2023-02-05T00:46:29;8.70;99.90
21035;DHT22;10676;50.848;3.272;2023-02-05T00:48:54;8.50;99.90
21035;DHT22;10676;50.848;3.272;2023-02-05T00:51:20;8.40;99.90
21035;DHT22;10676;50.848;3.272;2023-02-05T00:53:46;8.20;99.90
21035;DHT22;10676;50.848;3.272;2023-02-05T00:56:11;8.10;99.90
21035;DHT22;10676;50.848;3.272;2023-02-05T00:58:37;7.90;99.90
21035;DHT22;10676;50.848;3.272;2023-02-05T01:01:03;7.80;99.90
21035;DHT22;10676;50.848;3.272;2023-02-05T01:03:29;7.80;99.90
21035;DHT22;10676;50.848;3.272;2023-02-05T01:05:55;7.80;99.90
21035;DHT22;10676;50.848;3.272;2023-02-05T01:08:22;7.80;99.90
21035;DHT22;10676;50.848;3.272;2023-02-05T01:10:49;7.90;99.90
21035;DHT22;10676;50.848;3.272;2023-02-05T01:13:15;8.00;99.90
21035;DHT22;10676;50.848;3.272;2023-02-05T01:15:41;8.10;99.90
21035;DHT22;10676;50.848;3.272;2023-02-05T01:18:07;8.20;99.90
21035;DHT22;10676;50.848;3.272;2023-02-05T01:20:36;8.20;99.90
21035;DHT22;10676;50.848;3.272;2023-02-05T01:23:02;8.30;99.90
21035;DHT22;10676;50.848;3.272;2023-02-05T01:25:28;8.40;99.90
21035;DHT22;10676;50.848;3.272;2023-02-05T01:27:53;8.40;99.90
21035;DHT22;10676;50.848;3.272;2023-02-05T01:30:19;8.40;99.90
21035;DHT22;10676;50.848;3.272;2023-02-05T01:32:45;8.50;99.90
21035;DHT22;10676;50.848;3.272;2023-02-05T01:35:10;8.50;99.90
21035;DHT22;10676;50.848;3.272;2023-02-05T01:37:36;8.50;99.90
21035;DHT22;10676;50.848;3.272;2023-02-05T01:40:02;8.60;99.90
21035;DHT22;10676;50.848;3.272;2023-02-05T01:42:29;8.60;99.90
21035;DHT22;10676;50.848;3.272;2023-02-05T01:47:58;8.60;99.90
21035;DHT22;10676;50.848;3.272;2023-02-05T01:50:28;8.60;99.90
21035;DHT22;10676;50.848;3.272;2023-02-05T01:52:56;8.70;99.90
21035;DHT22;10676;50.848;3.272;2023-02-05T01:55:23;8.70;99.90
21035;DHT22;10676;50.848;3.272;2023-02-05T01:57:49;8.70;99.90
21035;DHT22;10676;50.848;3.272;2023-02-05T02:00:16;8.70;99.90
21035;DHT22;10676;50.848;3.272;2023-02-05T02:02:42;8.70;99.90
21035;DHT22;10676;50.848;3.272;2023-02-05T02:05:12;8.80;99.90
21035;DHT22;10676;50.848;3.272;2023-02-05T02:07:38;8.80;99.90
21035;DHT22;10676;50.848;3.272;2023-02-05T02:10:04;8.70;99.90
21035;DHT22;10676;50.848;3.272;2023-02-05T02:12:33;8.70;99.90
21035;DHT22;10676;50.848;3.272;2023-02-05T02:15:04;8.60;99.90
21035;DHT22;10676;50.848;3.272;2023-02-05T02:17:31;8.60;99.90
21035;DHT22;10676;50.848;3.272;2023-02-05T02:20:09;8.60;99.90
21035;DHT22;10676;50.848;3.272;2023-02-05T02:25:53;8.70;99.90
21035;DHT22;10676;50.848;3.272;2023-02-05T02:28:30;8.60;99.90
21035;DHT22;10676;50.848;3.272;2023-02-05T02:31:09;8.50;99.90
21035;DHT22;10676;50.848;3.272;2023-02-05T02:41:53;8.20;99.90
21035;DHT22;10676;50.848;3.272;2023-02-05T02:44:33;8.10;99.90
21035;DHT22;10676;50.848;3.272;2023-02-05T02:47:05;8.10;99.90
21035;DHT22;10676;50.848;3.272;2023-02-05T02:50:12;8.20;99.90
21035;DHT22;10676;50.848;3.272;2023-02-05T02:52:41;8.20;99.90
21035;DHT22;10676;50.848;3.272;2023-02-05T02:55:10;8.20;99.90
21035;DHT22;10676;50.848;3.272;2023-02-05T02:57:39;8.20;99.90
21035;DHT22;10676;50.848;3.272;2023-02-05T03:00:11;8.20;99.90
21035;DHT22;10676;50.848;3.272;2023-02-05T03:02:38;8.20;99.90
21035;DHT22;10676;50.848;3.272;2023-02-05T03:05:10;8.20;99.90
21035;DHT22;10676;50.848;3.272;2023-02-05T03:07:44;8.20;99.90
21035;DHT22;10676;50.848;3.272;2023-02-05T03:10:25;8.20;99.90
21035;DHT22;10676;50.848;3.272;2023-02-05T03:12:54;8.30;99.90
21035;DHT22;10676;50.848;3.272;2023-02-05T03:15:20;8.30;99.90
21035;DHT22;10676;50.848;3.272;2023-02-05T03:17:46;8.30;99.90
21035;DHT22;10676;50.848;3.272;2023-02-05T03:20:38;8.30;99.90
21035;DHT22;10676;50.848;3.272;2023-02-05T03:23:05;8.30;99.90
21035;DHT22;10676;50.848;3.272;2023-02-05T03:25:31;8.30;99.90
21035;DHT22;10676;50.848;3.272;2023-02-05T03:27:57;8.30;99.90
21035;DHT22;10676;50.848;3.272;2023-02-05T03:30:29;8.40;99.90
21035;DHT22;10676;50.848;3.272;2023-02-05T03:33:14;8.40;99.90
21035;DHT22;10676;50.848;3.272;2023-02-05T03:44:01;8.30;99.90
21035;DHT22;10676;50.848;3.272;2023-02-05T03:46:47;8.20;99.90
21035;DHT22;10676;50.848;3.272;2023-02-05T03:52:30;8.20;99.90
21035;DHT22;10676;50.848;3.272;2023-02-05T03:55:17;8.20;99.90
21035;DHT22;10676;50.848;3.272;2023-02-05T03:58:07;8.20;99.90
21035;DHT22;10676;50.848;3.272;2023-02-05T04:00:34;8.20;99.90
21035;DHT22;10676;50.848;3.272;2023-02-05T04:03:00;8.20;99.90
21035;DHT22;10676;50.848;3.272;2023-02-05T04:05:26;8.20;99.90
21035;DHT22;10676;50.848;3.272;2023-02-05T04:07:51;8.20;99.90
21035;DHT22;10676;50.848;3.272;2023-02-05T04:10:18;8.30;99.90
21035;DHT22;10676;50.848;3.272;2023-02-05T04:12:44;8.30;99.90
21035;DHT22;10676;50.848;3.272;2023-02-05T04:15:10;8.40;99.90
21035;DHT22;10676;50.848;3.272;2023-02-05T04:17:36;8.50;99.90
21035;DHT22;10676;50.848;3.272;2023-02-05T04:20:03;8.50;99.90
21035;DHT22;10676;50.848;3.272;2023-02-05T04:22:29;8.60;99.90
21035;DHT22;10676;50.848;3.272;2023-02-05T04:24:54;8.60;99.90
21035;DHT22;10676;50.848;3.272;2023-02-05T04:27:20;8.60;99.90
21035;DHT22;10676;50.848;3.272;2023-02-05T04:29:46;8.70;99.90
21035;DHT22;10676;50.848;3.272;2023-02-05T04:32:11;8.70;99.90
21035;DHT22;10676;50.848;3.272;2023-02-05T04:34:37;8.60;99.90
21035;DHT22;10676;50.848;3.272;2023-02-05T04:37:03;8.60;99.90
21035;DHT22;10676;50.848;3.272;2023-02-05T04:39:28;8.50;99.90
21035;DHT22;10676;50.848;3.272;2023-02-05T04:41:54;8.50;99.90
21035;DHT22;10676;50.848;3.272;2023-02-05T04:44:20;8.40;99.90
21035;DHT22;10676;50.848;3.272;2023-02-05T04:46:45;8.40;99.90
21035;DHT22;10676;50.848;3.272;2023-02-05T04:49:11;8.30;99.90
21035;DHT22;10676;50.848;3.272;2023-02-05T04:51:37;8.30;99.90
21035;DHT22;10676;50.848;3.272;2023-02-05T04:54:03;8.40;99.90
21035;DHT22;10676;50.848;3.272;2023-02-05T04:56:28;8.30;99.90
21035;DHT22;10676;50.848;3.272;2023-02-05T04:58:54;8.30;99.90
21035;DHT22;10676;50.848;3.272;2023-02-05T05:01:21;8.30;99.90
21035;DHT22;10676;50.848;3.272;2023-02-05T05:03:47;8.40;99.90
21035;DHT22;10676;50.848;3.272;2023-02-05T05:06:14;8.40;99.90
21035;DHT22;10676;50.848;3.272;2023-02-05T05:08:40;8.40;99.90
21035;DHT22;10676;50.848;3.272;2023-02-05T05:11:07;8.40;99.90
21035;DHT22;10676;50.848;3.272;2023-02-05T05:13:34;8.40;99.90
21035;DHT22;10676;50.848;3.272;2023-02-05T05:16:01;8.40;99.90
21035;DHT22;10676;50.848;3.272;2023-02-05T05:18:27;8.50;99.90
21035;DHT22;10676;50.848;3.272;2023-02-05T05:20:53;8.50;99.90
21035;DHT22;10676;50.848;3.272;2023-02-05T05:23:18;8.50;99.90
21035;DHT22;10676;50.848;3.272;2023-02-05T05:25:45;8.60;99.90
21035;DHT22;10676;50.848;3.272;2023-02-05T05:28:13;8.60;99.90
21035;DHT22;10676;50.848;3.272;2023-02-05T05:30:41;8.60;99.90
21035;DHT22;10676;50.848;3.272;2023-02-05T05:33:07;8.60;99.90
21035;DHT22;10676;50.848;3.272;2023-02-05T05:35:33;8.60;99.90
21035;DHT22;10676;50.848;3.272;2023-02-05T05:37:59;8.60;99.90
21035;DHT22;10676;50.848;3.272;2023-02-05T05:40:25;8.50;99.90
21035;DHT22;10676;50.848;3.272;2023-02-05T05:43:12;8.50;99.90
21035;DHT22;10676;50.848;3.272;2023-02-05T05:45:57;8.50;99.90
21035;DHT22;10676;50.848;3.272;2023-02-05T05:48:22;8.40;99.90
21035;DHT22;10676;50.848;3.272;2023-02-05T05:50:48;8.40;99.90
21035;DHT22;10676;50.848;3.272;2023-02-05T05:53:14;8.40;99.90
21035;DHT22;10676;50.848;3.272;2023-02-05T05:55:41;8.40;99.90
21035;DHT22;10676;50.848;3.272;2023-02-05T05:58:07;8.40;99.90
21035;DHT22;10676;50.848;3.272;2023-02-05T06:00:33;8.40;99.90
21035;DHT22;10676;50.848;3.272;2023-02-05T06:02:59;8.40;99.90
21035;DHT22;10676;50.848;3.272;2023-02-05T06:05:25;8.40;99.90
21035;DHT22;10676;50.848;3.272;2023-02-05T06:07:50;8.40;99.90
21035;DHT22;10676;50.848;3.272;2023-02-05T06:10:16;8.40;99.90
21035;DHT22;10676;50.848;3.272;2023-02-05T06:12:42;8.40;99.90
21035;DHT22;10676;50.848;3.272;2023-02-05T06:15:08;8.40;99.90
21035;DHT22;10676;50.848;3.272;2023-02-05T06:17:33;8.40;99.90
21035;DHT22;10676;50.848;3.272;2023-02-05T06:19:59;8.40;99.90
21035;DHT22;10676;50.848;3.272;2023-02-05T06:22:25;8.40;99.90
21035;DHT22;10676;50.848;3.272;2023-02-05T06:24:50;8.30;99.90
21035;DHT22;10676;50.848;3.272;2023-02-05T06:27:16;8.30;99.90
21035;DHT22;10676;50.848;3.272;2023-02-05T06:29:42;8.30;99.90
21035;DHT22;10676;50.848;3.272;2023-02-05T06:32:07;8.30;99.90
21035;DHT22;10676;50.848;3.272;2023-02-05T06:34:33;8.30;99.90
21035;DHT22;10676;50.848;3.272;2023-02-05T06:36:59;8.30;99.90
21035;DHT22;10676;50.848;3.272;2023-02-05T06:39:24;8.30;99.90
21035;DHT22;10676;50.848;3.272;2023-02-05T06:41:50;8.30;99.90
21035;DHT22;10676;50.848;3.272;2023-02-05T06:44:16;8.20;99.90
21035;DHT22;10676;50.848;3.272;2023-02-05T06:46:41;8.20;99.90
21035;DHT22;10676;50.848;3.272;2023-02-05T06:49:07;8.20;99.90
21035;DHT22;10676;50.848;3.272;2023-02-05T06:51:33;8.30;99.90
21035;DHT22;10676;50.848;3.272;2023-02-05T06:53:59;8.30;99.90
21035;DHT22;10676;50.848;3.272;2023-02-05T06:56:25;8.30;99.90
21035;DHT22;10676;50.848;3.272;2023-02-05T06:58:50;8.20;99.90
21035;DHT22;10676;50.848;3.272;2023-02-05T07:01:16;8.20;99.90
21035;DHT22;10676;50.848;3.272;2023-02-05T07:03:42;8.20;99.90
21035;DHT22;10676;50.848;3.272;2023-02-05T07:06:08;8.20;99.90
21035;DHT22;10676;50.848;3.272;2023-02-05T07:08:34;8.20;99.90
21035;DHT22;10676;50.848;3.272;2023-02-05T07:11:00;8.20;99.90
21035;DHT22;10676;50.848;3.272;2023-02-05T07:13:25;8.30;99.90
21035;DHT22;10676;50.848;3.272;2023-02-05T07:15:52;8.30;99.90
21035;DHT22;10676;50.848;3.272;2023-02-05T07:18:18;8.30;99.90
21035;DHT22;10676;50.848;3.272;2023-02-05T07:20:43;8.30;99.90
21035;DHT22;10676;50.848;3.272;2023-02-05T07:23:09;8.30;99.90
21035;DHT22;10676;50.848;3.272;2023-02-05T07:25:35;8.30;99.90
21035;DHT22;10676;50.848;3.272;2023-02-05T07:28:07;8.30;99.90
21035;DHT22;10676;50.848;3.272;2023-02-05T07:30:34;8.40;99.90
21035;DHT22;10676;50.848;3.272;2023-02-05T07:33:00;8.40;99.90
21035;DHT22;10676;50.848;3.272;2023-02-05T07:35:28;8.40;99.90
21035;DHT22;10676;50.848;3.272;2023-02-05T07:37:54;8.40;99.90
21035;DHT22;10676;50.848;3.272;2023-02-05T07:40:20;8.40;99.90
21035;DHT22;10676;50.848;3.272;2023-02-05T07:42:45;8.40;99.90
21035;DHT22;10676;50.848;3.272;2023-02-05T07:45:11;8.40;99.90
21035;DHT22;10676;50.848;3.272;2023-02-05T07:47:37;8.40;99.90
21035;DHT22;10676;50.848;3.272;2023-02-05T07:50:03;8.40;99.90
21035;DHT22;10676;50.848;3.272;2023-02-05T07:52:29;8.50;99.90
21035;DHT22;10676;50.848;3.272;2023-02-05T07:54:55;8.60;99.90
21035;DHT22;10676;50.848;3.272;2023-02-05T07:57:21;8.60;99.90
21035;DHT22;10676;50.848;3.272;2023-02-05T07:59:46;8.70;99.90
21035;DHT22;10676;50.848;3.272;2023-02-05T08:02:12;8.80;99.90
21035;DHT22;10676;50.848;3.272;2023-02-05T08:04:38;8.90;99.90
21035;DHT22;10676;50.848;3.272;2023-02-05T08:07:03;9.00;99.90
21035;DHT22;10676;50.848;3.272;2023-02-05T08:09:29;9.00;99.90
21035;DHT22;10676;50.848;3.272;2023-02-05T08:11:55;9.10;99.90
21035;DHT22;10676;50.848;3.272;2023-02-05T08:14:21;9.10;99.90
21035;DHT22;10676;50.848;3.272;2023-02-05T08:16:46;9.00;99.90
21035;DHT22;10676;50.848;3.272;2023-02-05T08:19:15;9.00;99.90
21035;DHT22;10676;50.848;3.272;2023-02-05T08:21:42;9.00;99.90
21035;DHT22;10676;50.848;3.272;2023-02-05T08:24:08;9.00;99.90
21035;DHT22;10676;50.848;3.272;2023-02-05T08:26:35;9.00;99.90
21035;DHT22;10676;50.848;3.272;2023-02-05T08:29:01;8.90;99.90
21035;DHT22;10676;50.848;3.272;2023-02-05T08:31:30;8.90;99.90
21035;DHT22;10676;50.848;3.272;2023-02-05T08:33:56;8.90;99.90
21035;DHT22;10676;50.848;3.272;2023-02-05T08:36:24;8.90;99.90
21035;DHT22;10676;50.848;3.272;2023-02-05T08:38:50;8.90;99.90
21035;DHT22;10676;50.848;3.272;2023-02-05T08:41:15;8.90;99.90
21035;DHT22;10676;50.848;3.272;2023-02-05T08:43:46;8.90;99.90
21035;DHT22;10676;50.848;3.272;2023-02-05T08:46:15;9.00;99.90
21035;DHT22;10676;50.848;3.272;2023-02-05T08:48:42;9.00;99.90
21035;DHT22;10676;50.848;3.272;2023-02-05T08:51:09;9.00;99.90
21035;DHT22;10676;50.848;3.272;2023-02-05T08:53:35;9.10;99.90
21035;DHT22;10676;50.848;3.272;2023-02-05T08:56:02;9.10;99.90
21035;DHT22;10676;50.848;3.272;2023-02-05T08:58:28;9.20;99.90
21035;DHT22;10676;50.848;3.272;2023-02-05T09:01:06;9.30;99.90
21035;DHT22;10676;50.848;3.272;2023-02-05T09:03:33;9.40;99.90
21035;DHT22;10676;50.848;3.272;2023-02-05T09:05:59;9.50;99.90
21035;DHT22;10676;50.848;3.272;2023-02-05T09:08:25;9.80;99.90
21035;DHT22;10676;50.848;3.272;2023-02-05T09:10:52;9.90;99.90
21035;DHT22;10676;50.848;3.272;2023-02-05T09:13:18;10.10;99.90
21035;DHT22;10676;50.848;3.272;2023-02-05T09:15:45;10.20;99.90
21035;DHT22;10676;50.848;3.272;2023-02-05T09:18:11;10.40;99.90
21035;DHT22;10676;50.848;3.272;2023-02-05T09:20:45;10.60;99.90
21035;DHT22;10676;50.848;3.272;2023-02-05T09:23:12;10.80;99.90
21035;DHT22;10676;50.848;3.272;2023-02-05T09:25:42;10.90;99.90
21035;DHT22;10676;50.848;3.272;2023-02-05T09:28:11;11.00;99.90
21035;DHT22;10676;50.848;3.272;2023-02-05T09:30:44;11.00;99.90
21035;DHT22;10676;50.848;3.272;2023-02-05T09:33:11;11.10;99.90
21035;DHT22;10676;50.848;3.272;2023-02-05T09:35:37;11.10;99.90
21035;DHT22;10676;50.848;3.272;2023-02-05T09:38:03;11.10;99.90
21035;DHT22;10676;50.848;3.272;2023-02-05T09:40:38;11.10;99.90
21035;DHT22;10676;50.848;3.272;2023-02-05T09:51:43;11.70;99.90
21035;DHT22;10676;50.848;3.272;2023-02-05T09:56:51;12.80;99.90
21035;DHT22;10676;50.848;3.272;2023-02-05T09:59:24;13.00;99.90
21035;DHT22;10676;50.848;3.272;2023-02-05T10:02:01;12.80;99.90
21035;DHT22;10676;50.848;3.272;2023-02-05T10:04:32;12.30;99.90
21035;DHT22;10676;50.848;3.272;2023-02-05T10:07:17;12.00;99.90
21035;DHT22;10676;50.848;3.272;2023-02-05T10:21:20;11.80;99.90
21035;DHT22;10676;50.848;3.272;2023-02-05T10:32:59;11.50;99.90
21035;DHT22;10676;50.848;3.272;2023-02-05T10:35:43;12.10;99.90
21035;DHT22;10676;50.848;3.272;2023-02-05T10:38:22;12.20;99.90
21035;DHT22;10676;50.848;3.272;2023-02-05T10:40:50;12.20;99.90
21035;DHT22;10676;50.848;3.272;2023-02-05T10:45:52;12.00;99.90
21035;DHT22;10676;50.848;3.272;2023-02-05T10:51:15;11.80;99.90
21035;DHT22;10676;50.848;3.272;2023-02-05T10:53:42;11.60;99.90
21035;DHT22;10676;50.848;3.272;2023-02-05T10:56:14;11.50;99.90
21035;DHT22;10676;50.848;3.272;2023-02-05T10:58:55;11.40;99.90
21035;DHT22;10676;50.848;3.272;2023-02-05T11:01:22;11.40;99.90
21035;DHT22;10676;50.848;3.272;2023-02-05T11:04:00;11.40;99.90
21035;DHT22;10676;50.848;3.272;2023-02-05T11:06:37;11.40;99.90
21035;DHT22;10676;50.848;3.272;2023-02-05T11:11:53;11.50;99.90
21035;DHT22;10676;50.848;3.272;2023-02-05T11:14:37;12.20;99.90
21035;DHT22;10676;50.848;3.272;2023-02-05T11:19:49;14.20;99.90
21035;DHT22;10676;50.848;3.272;2023-02-05T11:22:28;14.70;99.90
21035;DHT22;10676;50.848;3.272;2023-02-05T11:25:15;14.90;99.90
21035;DHT22;10676;50.848;3.272;2023-02-05T11:27:55;14.90;99.90
21035;DHT22;10676;50.848;3.272;2023-02-05T11:30:26;15.20;99.90
21035;DHT22;10676;50.848;3.272;2023-02-05T11:32:53;15.40;99.90
21035;DHT22;10676;50.848;3.272;2023-02-05T11:35:29;15.20;99.90
21035;DHT22;10676;50.848;3.272;2023-02-05T11:38:14;15.00;99.90
21035;DHT22;10676;50.848;3.272;2023-02-05T11:40:50;14.50;99.90
21035;DHT22;10676;50.848;3.272;2023-02-05T11:43:29;14.20;99.90
21035;DHT22;10676;50.848;3.272;2023-02-05T11:45:57;14.20;99.90
21035;DHT22;10676;50.848;3.272;2023-02-05T11:50:53;14.60;99.90
21035;DHT22;10676;50.848;3.272;2023-02-05T11:53:20;14.70;99.90
21035;DHT22;10676;50.848;3.272;2023-02-05T11:55:52;15.10;99.90
21035;DHT22;10676;50.848;3.272;2023-02-05T11:58:22;15.40;99.90
21035;DHT22;10676;50.848;3.272;2023-02-05T12:00:57;15.40;99.90
21035;DHT22;10676;50.848;3.272;2023-02-05T12:03:25;15.10;99.90
21035;DHT22;10676;50.848;3.272;2023-02-05T12:06:15;14.70;99.90
21035;DHT22;10676;50.848;3.272;2023-02-05T12:08:49;14.30;99.90
21035;DHT22;10676;50.848;3.272;2023-02-05T12:11:24;14.10;99.90
21035;DHT22;10676;50.848;3.272;2023-02-05T12:14:01;14.10;99.90
21035;DHT22;10676;50.848;3.272;2023-02-05T12:16:35;14.40;99.90
21035;DHT22;10676;50.848;3.272;2023-02-05T12:22:11;14.60;99.90
21035;DHT22;10676;50.848;3.272;2023-02-05T12:27:25;13.90;99.90
21035;DHT22;10676;50.848;3.272;2023-02-05T12:32:56;13.50;99.90
21035;DHT22;10676;50.848;3.272;2023-02-05T12:35:39;13.60;99.90
21035;DHT22;10676;50.848;3.272;2023-02-05T12:41:24;13.50;99.90
21035;DHT22;10676;50.848;3.272;2023-02-05T12:44:04;13.30;99.90
21035;DHT22;10676;50.848;3.272;2023-02-05T12:46:55;13.10;99.90
21035;DHT22;10676;50.848;3.272;2023-02-05T12:52:05;13.00;99.90
21035;DHT22;10676;50.848;3.272;2023-02-05T12:58:00;13.20;99.90
21035;DHT22;10676;50.848;3.272;2023-02-05T13:05:47;13.40;99.90
21035;DHT22;10676;50.848;3.272;2023-02-05T13:08:24;13.40;99.90
21035;DHT22;10676;50.848;3.272;2023-02-05T13:13:43;13.50;99.90
21035;DHT22;10676;50.848;3.272;2023-02-05T13:16:14;13.50;99.90
21035;DHT22;10676;50.848;3.272;2023-02-05T13:18:45;13.50;99.90
21035;DHT22;10676;50.848;3.272;2023-02-05T13:21:17;13.40;99.90
21035;DHT22;10676;50.848;3.272;2023-02-05T13:24:28;13.30;99.90
21035;DHT22;10676;50.848;3.272;2023-02-05T13:27:25;13.20;99.90
21035;DHT22;10676;50.848;3.272;2023-02-05T13:30:14;13.00;99.90
21035;DHT22;10676;50.848;3.272;2023-02-05T13:32:43;12.80;99.90
21035;DHT22;10676;50.848;3.272;2023-02-05T13:35:14;12.60;99.90
21035;DHT22;10676;50.848;3.272;2023-02-05T13:42:51;12.20;99.90
21035;DHT22;10676;50.848;3.272;2023-02-05T13:49:02;12.10;99.90
21035;DHT22;10676;50.848;3.272;2023-02-05T13:56:40;12.00;99.90
21035;DHT22;10676;50.848;3.272;2023-02-05T14:01:57;12.10;99.90
21035;DHT22;10676;50.848;3.272;2023-02-05T14:04:37;12.10;99.90
21035;DHT22;10676;50.848;3.272;2023-02-05T14:07:28;12.10;99.90
21035;DHT22;10676;50.848;3.272;2023-02-05T14:09:54;12.10;99.90
21035;DHT22;10676;50.848;3.272;2023-02-05T14:12:35;12.20;99.90
21035;DHT22;10676;50.848;3.272;2023-02-05T14:22:50;12.00;99.90
21035;DHT22;10676;50.848;3.272;2023-02-05T14:30:50;11.40;99.90
21035;DHT22;10676;50.848;3.272;2023-02-05T14:38:53;11.10;99.90
21035;DHT22;10676;50.848;3.272;2023-02-05T14:41:30;11.00;99.90
21035;DHT22;10676;50.848;3.272;2023-02-05T14:44:04;10.90;99.90
21035;DHT22;10676;50.848;3.272;2023-02-05T14:46:40;10.90;99.90
21035;DHT22;10676;50.848;3.272;2023-02-05T14:49:25;10.80;99.90
21035;DHT22;10676;50.848;3.272;2023-02-05T14:51:53;10.60;99.90
21035;DHT22;10676;50.848;3.272;2023-02-05T14:54:29;10.50;99.90
21035;DHT22;10676;50.848;3.272;2023-02-05T15:13:21;10.20;99.90
21035;DHT22;10676;50.848;3.272;2023-02-05T15:16:16;10.30;99.90
21035;DHT22;10676;50.848;3.272;2023-02-05T15:23:50;10.30;99.90
21035;DHT22;10676;50.848;3.272;2023-02-05T15:26:41;10.30;99.90
21035;DHT22;10676;50.848;3.272;2023-02-05T15:29:19;10.30;99.90
21035;DHT22;10676;50.848;3.272;2023-02-05T15:31:49;10.30;99.90
21035;DHT22;10676;50.848;3.272;2023-02-05T15:37:27;10.20;99.90
21035;DHT22;10676;50.848;3.272;2023-02-05T15:42:47;10.10;99.90
21035;DHT22;10676;50.848;3.272;2023-02-05T15:45:29;10.10;99.90
21035;DHT22;10676;50.848;3.272;2023-02-05T15:50:23;10.00;99.90
21035;DHT22;10676;50.848;3.272;2023-02-05T15:52:49;9.90;99.90
21035;DHT22;10676;50.848;3.272;2023-02-05T15:55:18;9.90;99.90
21035;DHT22;10676;50.848;3.272;2023-02-05T15:57:46;9.80;99.90
21035;DHT22;10676;50.848;3.272;2023-02-05T16:00:22;9.70;99.90
21035;DHT22;10676;50.848;3.272;2023-02-05T16:02:57;9.70;99.90
21035;DHT22;10676;50.848;3.272;2023-02-05T16:05:26;9.60;99.90
21035;DHT22;10676;50.848;3.272;2023-02-05T16:07:52;9.50;99.90
21035;DHT22;10676;50.848;3.272;2023-02-05T16:10:27;9.40;99.90
21035;DHT22;10676;50.848;3.272;2023-02-05T16:13:00;9.40;99.90
21035;DHT22;10676;50.848;3.272;2023-02-05T16:15:49;9.40;99.90
21035;DHT22;10676;50.848;3.272;2023-02-05T16:19:05;9.30;99.90
21035;DHT22;10676;50.848;3.272;2023-02-05T16:21:21;9.30;99.90
21035;DHT22;10676;50.848;3.272;2023-02-05T16:24:01;9.30;99.90
21035;DHT22;10676;50.848;3.272;2023-02-05T16:26:38;9.20;99.90
21035;DHT22;10676;50.848;3.272;2023-02-05T16:29:06;9.20;99.90
21035;DHT22;10676;50.848;3.272;2023-02-05T16:31:35;9.20;99.90
21035;DHT22;10676;50.848;3.272;2023-02-05T16:34:11;9.20;99.90
21035;DHT22;10676;50.848;3.272;2023-02-05T16:36:41;9.20;99.90
21035;DHT22;10676;50.848;3.272;2023-02-05T16:39:19;9.20;99.90
21035;DHT22;10676;50.848;3.272;2023-02-05T16:42:05;9.10;99.90
21035;DHT22;10676;50.848;3.272;2023-02-05T16:44:35;9.10;99.90
21035;DHT22;10676;50.848;3.272;2023-02-05T16:47:20;9.10;99.90
21035;DHT22;10676;50.848;3.272;2023-02-05T16:49:46;9.10;99.90
21035;DHT22;10676;50.848;3.272;2023-02-05T16:52:33;9.10;99.90
21035;DHT22;10676;50.848;3.272;2023-02-05T16:57:53;9.00;99.90
21035;DHT22;10676;50.848;3.272;2023-02-05T17:00:23;8.90;99.90
21035;DHT22;10676;50.848;3.272;2023-02-05T17:02:58;8.90;99.90
21035;DHT22;10676;50.848;3.272;2023-02-05T17:05:28;8.90;99.90
21035;DHT22;10676;50.848;3.272;2023-02-05T17:08:03;8.90;99.90
21035;DHT22;10676;50.848;3.272;2023-02-05T17:10:31;8.80;99.90
21035;DHT22;10676;50.848;3.272;2023-02-05T17:13:02;8.80;99.90
21035;DHT22;10676;50.848;3.272;2023-02-05T17:15:37;8.70;99.90
21035;DHT22;10676;50.848;3.272;2023-02-05T17:18:27;8.70;99.90
21035;DHT22;10676;50.848;3.272;2023-02-05T17:21:18;8.60;99.90
21035;DHT22;10676;50.848;3.272;2023-02-05T17:23:47;8.50;99.90
21035;DHT22;10676;50.848;3.272;2023-02-05T17:26:13;8.40;99.90
21035;DHT22;10676;50.848;3.272;2023-02-05T17:28:39;8.30;99.90
21035;DHT22;10676;50.848;3.272;2023-02-05T17:31:08;8.20;99.90
21035;DHT22;10676;50.848;3.272;2023-02-05T17:33:34;8.20;99.90
21035;DHT22;10676;50.848;3.272;2023-02-05T17:36:00;8.20;99.90
21035;DHT22;10676;50.848;3.272;2023-02-05T17:38:25;8.20;99.90
21035;DHT22;10676;50.848;3.272;2023-02-05T17:40:51;8.20;99.90
21035;DHT22;10676;50.848;3.272;2023-02-05T17:43:40;8.10;99.90
21035;DHT22;10676;50.848;3.272;2023-02-05T17:46:11;8.00;99.90
21035;DHT22;10676;50.848;3.272;2023-02-05T17:48:38;7.90;99.90
21035;DHT22;10676;50.848;3.272;2023-02-05T17:51:04;7.80;99.90
21035;DHT22;10676;50.848;3.272;2023-02-05T17:53:29;7.70;99.90
21035;DHT22;10676;50.848;3.272;2023-02-05T17:55:55;7.60;99.90
21035;DHT22;10676;50.848;3.272;2023-02-05T17:58:21;7.50;99.90
21035;DHT22;10676;50.848;3.272;2023-02-05T18:00:47;7.50;99.90
21035;DHT22;10676;50.848;3.272;2023-02-05T18:03:12;7.40;99.90
21035;DHT22;10676;50.848;3.272;2023-02-05T18:05:38;7.40;99.90
21035;DHT22;10676;50.848;3.272;2023-02-05T18:08:04;7.30;99.90
21035;DHT22;10676;50.848;3.272;2023-02-05T18:10:31;7.20;99.90
21035;DHT22;10676;50.848;3.272;2023-02-05T18:12:57;7.10;99.90
21035;DHT22;10676;50.848;3.272;2023-02-05T18:15:24;7.10;99.90
21035;DHT22;10676;50.848;3.272;2023-02-05T18:17:51;7.10;99.90
21035;DHT22;10676;50.848;3.272;2023-02-05T18:20:17;7.00;99.90
21035;DHT22;10676;50.848;3.272;2023-02-05T18:22:47;7.00;99.90
21035;DHT22;10676;50.848;3.272;2023-02-05T18:25:13;6.90;99.90
21035;DHT22;10676;50.848;3.272;2023-02-05T18:27:39;6.80;99.90
21035;DHT22;10676;50.848;3.272;2023-02-05T18:30:05;6.80;99.90
21035;DHT22;10676;50.848;3.272;2023-02-05T18:32:31;6.80;99.90
21035;DHT22;10676;50.848;3.272;2023-02-05T18:34:57;6.80;99.90
21035;DHT22;10676;50.848;3.272;2023-02-05T18:37:23;6.60;99.90
21035;DHT22;10676;50.848;3.272;2023-02-05T18:39:48;6.70;99.90
21035;DHT22;10676;50.848;3.272;2023-02-05T18:42:15;6.60;99.90
21035;DHT22;10676;50.848;3.272;2023-02-05T18:44:41;6.60;99.90